Latest Weather Observations for Rottnest Island

IDW60801

Issued at 4:02 am WST Saturday 28 May 2016 (issued every 30 minutes, with the page automatically refreshed every 10 minutes)

About weather observations | Map of weather stations | Latest weather observations for WA | Other Formats
Station Details ID: 009193 Name: ROTTNEST ISLAND Lat: -32.01 Lon: 115.50 Height: 43.1 m
Data from the previous 72 hours. | See also: Recent months at Rottnest Island
Date/Time
WST
Temp
°C
App
Temp
°C
Dew
Point
Rel
Hum
%
Delta-T
°C
Wind Press
QNH
hPa
Press
MSL
hPa
Rain
since 9 am
mm
Dir
 
Spd
km/h
Gust
km/h
Spd
kts
Gust
kts
28/04:00am 15.9 11.2 14.3 90 0.9 W 32 43 17 23 1012.7 1012.6 2.8
28/03:58am 15.8 11.1 14.2 90 0.9 W 32 50 17 27 1012.7 1012.6 2.8
28/03:39am 16.1 11.3 14.1 88 1.1 W 32 46 17 25 1012.7 1012.6 2.8
28/03:30am 16.1 9.5 13.8 86 1.3 WNW 41 56 22 30 1012.9 1012.8 2.4
28/03:03am 17.0 9.2 12.9 77 2.3 NW 46 74 25 40 1012.7 1012.6 0.4
28/03:00am 17.5 9.7 13.0 75 2.5 NW 46 63 25 34 1012.4 1012.3 0.4
28/02:48am 18.8 10.9 12.8 68 3.4 NNW 46 69 25 37 1012.2 1012.1 0.0
28/02:30am 19.3 10.7 11.8 62 4.2 NNW 48 63 26 34 1012.1 1012.0 0.0
28/02:00am 19.2 10.2 11.5 61 4.2 NNW 50 63 27 34 1012.4 1012.3 0.0
28/01:30am 19.0 10.9 12.0 64 3.9 NNW 46 65 25 35 1012.4 1012.3 0.0
28/01:29am 19.1 11.0 12.1 64 3.9 NNW 46 65 25 35 1012.5 1012.4 0.0
28/01:00am 18.9 10.7 11.7 63 4.0 NNW 46 57 25 31 1013.2 1013.1 0.0
28/12:30am 18.8 11.0 11.9 64 3.8 NNW 44 56 24 30 1013.7 1013.6 0.0
28/12:00am 18.4 11.1 11.5 64 3.8 NNW 41 52 22 28 1014.2 1014.1 0.0
 
Date/Time
WST
Temp
°C
App
Temp
°C
Dew
Point
Rel
Hum
%
Delta-T
°C
Wind Press
QNH
hPa
Press
MSL
hPa
Rain
since 9 am
mm
Dir
 
Spd
km/h
Gust
km/h
Spd
kts
Gust
kts
27/11:30pm 18.4 12.3 11.7 65 3.7 NNW 35 46 19 25 1014.6 1014.5 0.0
27/11:00pm 18.4 11.7 12.2 67 3.4 NNW 39 48 21 26 1014.9 1014.8 0.0
27/10:30pm 18.2 12.2 10.1 59 4.3 NNW 32 41 17 22 1015.5 1015.4 0.0
27/10:00pm 17.9 12.0 10.3 61 4.1 NNW 32 39 17 21 1016.1 1016.0 0.0
27/09:30pm 17.2 12.5 10.6 65 3.5 NNW 26 32 14 17 1016.6 1016.5 0.0
27/09:00pm 17.3 12.9 10.4 64 3.7 N 24 33 13 18 1016.8 1016.7 0.0
27/08:30pm 17.0 12.0 11.1 68 3.2 NNW 28 33 15 18 1017.0 1016.9 0.0
27/08:24pm 17.0 12.9 11.5 70 3.0 NNW 24 35 13 19 1017.0 1016.9 0.0
27/08:00pm 16.6 9.7 11.5 72 2.8 NW 39 50 21 27 1017.6 1017.5 0.0
27/07:30pm 16.1 11.3 10.4 69 3.0 NW 26 50 14 27 1017.7 1017.6 0.0
27/07:26pm 16.1 10.0 10.4 69 3.0 NW 33 50 18 27 1017.8 1017.7 0.0
27/07:22pm 16.9 10.9 10.7 67 3.3 NW 33 50 18 27 1017.5 1017.4 0.0
27/07:17pm 17.0 11.8 10.4 65 3.5 NW 28 44 15 24 1017.6 1017.5 0.0
27/07:00pm 18.7 14.6 8.7 52 5.2 NNW 20 26 11 14 1017.5 1017.4 0.0
27/06:30pm 18.4 14.4 8.4 52 5.2 NNW 19 26 10 14 1017.6 1017.5 0.0
27/06:00pm 18.6 14.0 8.3 51 5.3 NNW 22 28 12 15 1017.4 1017.3 0.0
27/05:30pm 18.7 14.5 8.4 51 5.3 NNW 20 26 11 14 1017.4 1017.3 0.0
27/05:00pm 18.7 13.9 8.7 52 5.2 N 24 30 13 16 1017.1 1017.0 0.0
27/04:30pm 18.7 13.1 7.2 47 5.8 N 26 33 14 18 1016.9 1016.8 0.0
27/04:00pm 19.5 14.9 8.2 48 5.8 NNE 22 28 12 15 1016.9 1016.8 0.0
27/03:30pm 19.6 15.0 8.0 47 6.0 N 22 32 12 17 1017.3 1017.2 0.0
27/03:00pm 19.6 15.5 8.6 49 5.7 N 20 28 11 15 1017.7 1017.6 0.0
27/02:30pm 19.6 15.4 8.3 48 5.9 NNE 20 28 11 15 1018.1 1018.0 0.0
27/02:00pm 19.9 15.8 8.6 48 5.9 NNE 20 28 11 15 1018.7 1018.6 0.0
27/01:30pm 19.5 14.6 6.9 44 6.4 NNE 22 30 12 16 1019.2 1019.1 0.0
27/01:00pm 19.5 14.6 8.5 49 5.7 N 24 30 13 16 1019.7 1019.6 0.0
27/12:30pm 19.4 14.7 10.7 57 4.7 N 26 32 14 17 1020.1 1020.0 0.0
27/12:00pm 19.0 15.0 11.8 63 4.0 N 24 32 13 17 1020.8 1020.7 0.0
27/11:30am 17.7 13.6 11.5 67 3.4 NNE 24 28 13 15 1021.3 1021.2 0.0
27/11:00am 17.8 12.9 11.4 66 3.5 N 28 35 15 19 1021.7 1021.6 0.0
27/10:30am 17.2 12.6 11.2 68 3.2 NNE 26 32 14 17 1022.1 1022.0 0.0
27/10:00am 16.7 13.1 11.8 73 2.7 NNE 22 30 12 16 1022.4 1022.3 0.0
27/09:30am 16.0 11.9 11.6 75 2.4 NNE 24 32 13 17 1022.4 1022.3 0.0
27/09:00am 15.4 11.7 11.4 77 2.1 NNE 22 28 12 15 1022.3 1022.2 0.6
27/08:30am 15.4 12.2 11.2 76 2.2 NNE 19 26 10 14 1022.1 1022.0 0.6
27/08:00am 14.8 11.3 10.8 77 2.1 NNE 20 26 11 14 1022.1 1022.0 0.6
27/07:30am 14.7 11.1 10.7 77 2.1 NNE 20 28 11 15 1022.1 1022.0 0.6
27/07:00am 14.7 11.1 10.5 76 2.2 NNE 20 28 11 15 1021.9 1021.8 0.6
27/06:30am 14.8 10.8 10.4 75 2.3 NNE 22 30 12 16 1021.7 1021.6 0.6
27/06:00am 14.8 10.5 10.6 76 2.2 NNE 24 30 13 16 1021.6 1021.5 0.6
27/05:30am 14.8 10.9 10.8 77 2.1 NNE 22 28 12 15 1021.3 1021.2 0.6
27/05:00am 14.4 11.8 10.8 79 1.9 NNE 15 20 8 11 1021.6 1021.5 0.6
27/04:30am 14.7 11.8 10.9 78 2.0 NNE 17 20 9 11 1021.6 1021.5 0.6
27/04:00am 14.6 11.7 11.0 79 1.9 NNE 17 22 9 12 1021.7 1021.6 0.6
27/03:30am 14.3 10.9 10.5 78 2.0 NE 19 22 10 12 1021.9 1021.8 0.6
27/03:00am 14.3 11.6 10.3 77 2.1 NE 15 19 8 10 1022.3 1022.2 0.6
27/02:30am 14.1 11.7 9.9 76 2.2 NE 13 17 7 9 1022.2 1022.1 0.6
27/02:00am 14.2 11.0 9.8 75 2.3 NE 17 20 9 11 1022.1 1022.0 0.6
27/01:30am 14.3 11.0 9.5 73 2.5 ENE 17 19 9 10 1022.3 1022.2 0.6
27/01:00am 14.0 11.0 9.2 73 2.4 ENE 15 17 8 9 1022.2 1022.1 0.6
27/12:30am 14.2 11.2 9.2 72 2.6 ENE 15 17 8 9 1022.2 1022.1 0.6
27/12:00am 14.4 11.3 9.0 70 2.7 E 15 17 8 9 1022.4 1022.3 0.6
 
Date/Time
WST
Temp
°C
App
Temp
°C
Dew
Point
Rel
Hum
%
Delta-T
°C
Wind Press
QNH
hPa
Press
MSL
hPa
Rain
since 9 am
mm
Dir
 
Spd
km/h
Gust
km/h
Spd
kts
Gust
kts
26/11:30pm 14.7 11.5 8.4 66 3.2 E 15 17 8 9 1022.5 1022.4 0.6
26/11:00pm 15.0 12.2 8.5 65 3.3 E 13 15 7 8 1022.6 1022.5 0.6
26/10:30pm 15.1 12.0 9.0 67 3.1 E 15 17 8 9 1022.7 1022.6 0.6
26/10:00pm 15.0 12.6 8.7 66 3.2 E 11 13 6 7 1022.6 1022.5 0.6
26/09:30pm 15.1 12.8 9.0 67 3.1 ENE 11 13 6 7 1022.6 1022.5 0.6
26/09:00pm 15.1 12.9 9.2 68 3.0 E 11 11 6 6 1022.3 1022.2 0.6
26/08:30pm 15.1 12.5 9.2 68 3.0 E 13 17 7 9 1022.2 1022.1 0.6
26/08:00pm 16.2 12.9 9.6 65 3.4 SE 17 24 9 13 1021.9 1021.8 0.6
26/07:30pm 16.3 14.2 9.7 65 3.5 ESE 11 13 6 7 1021.9 1021.8 0.6
26/07:00pm 16.1 14.3 9.3 64 3.5 SE 9 15 5 8 1021.6 1021.5 0.6
26/06:30pm 16.4 13.7 8.9 61 3.9 SSE 13 19 7 10 1021.0 1020.9 0.6
26/06:00pm 16.3 12.7 8.5 60 4.0 S 17 20 9 11 1020.5 1020.4 0.6
26/05:30pm 16.3 12.5 9.0 62 3.8 S 19 24 10 13 1020.4 1020.3 0.6
26/05:00pm 16.8 12.5 9.2 61 3.9 S 22 26 12 14 1020.1 1020.0 0.6
26/04:30pm 16.8 12.9 9.5 62 3.8 S 20 28 11 15 1020.1 1020.0 0.6
26/04:00pm 17.4 13.7 10.1 62 3.9 S 20 28 11 15 1019.4 1019.3 0.6
26/03:30pm 17.4 12.4 10.8 65 3.5 S 28 32 15 17 1019.1 1019.0 0.6
26/03:00pm 17.8 13.6 11.1 65 3.6 S 24 35 13 19 1019.0 1018.9 0.6
26/02:30pm 18.4 13.7 10.8 61 4.1 SSW 26 32 14 17 1019.0 1018.9 0.6
26/02:00pm 17.5 14.5 12.0 70 3.0 S 19 24 10 13 1018.9 1018.8 0.6
26/01:30pm 17.7 15.3 12.8 73 2.7 S 17 22 9 12 1018.7 1018.6 0.6
26/01:00pm 16.7 15.0 12.5 76 2.3 S 13 20 7 11 1018.8 1018.7 0.6
26/12:30pm 15.9 13.1 11.5 75 2.4 SSW 17 28 9 15 1018.9 1018.8 0.2
26/12:00pm 17.8 12.3 12.0 69 3.2 S 32 41 17 22 1018.7 1018.6 0.0
26/11:30am 17.8 13.2 12.3 70 3.0 SSW 28 33 15 18 1018.7 1018.6 0.0
26/11:00am 18.5 13.0 9.3 55 4.8 SW 28 39 15 21 1018.7 1018.6 0.0
26/10:30am 18.3 13.0 9.9 58 4.5 WSW 28 35 15 19 1018.4 1018.3 0.0
26/10:00am 18.4 13.0 9.5 56 4.7 WSW 28 33 15 18 1017.7 1017.6 0.0
26/09:30am 18.4 13.6 10.3 59 4.3 WSW 26 33 14 18 1017.5 1017.4 0.0
26/09:00am 17.5 13.8 11.5 68 3.3 WSW 22 33 12 18 1017.2 1017.1 3.8
26/08:30am 17.0 13.2 11.3 69 3.1 WSW 22 32 12 17 1016.7 1016.6 3.8
26/08:00am 16.4 12.2 11.1 71 2.8 WSW 24 32 13 17 1016.4 1016.3 3.8
26/07:30am 15.7 10.0 11.3 75 2.4 SW 32 43 17 23 1015.7 1015.6 3.8
26/07:00am 16.1 10.7 10.8 71 2.8 WSW 30 41 16 22 1015.2 1015.1 3.8
26/06:30am 16.7 11.5 10.1 65 3.5 WSW 28 39 15 21 1014.8 1014.7 3.2
26/06:00am 17.0 11.2 9.4 61 4.0 WSW 30 39 16 21 1014.5 1014.4 3.2
26/05:30am 16.9 10.3 8.6 58 4.3 WSW 33 43 18 23 1014.1 1014.0 3.2
26/05:00am 16.9 10.7 9.3 61 4.0 WSW 32 41 17 22 1014.0 1013.9 3.2
26/04:30am 16.9 10.6 9.8 63 3.7 WSW 33 48 18 26 1014.3 1014.2 3.2
26/04:00am 17.0 11.3 9.9 63 3.7 W 30 39 16 21 1013.8 1013.7 3.2
26/03:30am 16.9 10.7 10.1 64 3.6 WSW 33 43 18 23 1013.5 1013.4 3.2
26/03:00am 16.8 11.0 10.9 68 3.2 WSW 32 46 17 25 1013.2 1013.1 3.2
26/02:30am 16.8 10.8 10.9 68 3.2 W 33 46 18 25 1013.2 1013.1 3.2
26/02:00am 16.9 11.1 10.7 67 3.3 W 32 44 17 24 1012.9 1012.8 3.2
26/01:30am 16.7 11.9 11.6 72 2.8 W 28 43 15 23 1012.5 1012.4 3.2
26/01:00am 15.3 10.0 11.3 77 2.1 WSW 30 44 16 24 1012.1 1012.0 3.2
26/12:30am 16.5 11.6 11.4 72 2.8 W 28 39 15 21 1012.6 1012.5 3.2
26/12:00am 16.0 12.3 11.6 75 2.4 W 22 30 12 16 1012.7 1012.6 3.2
 
Date/Time
WST
Temp
°C
App
Temp
°C
Dew
Point
Rel
Hum
%
Delta-T
°C
Wind Press
QNH
hPa
Press
MSL
hPa
Rain
since 9 am
mm
Dir
 
Spd
km/h
Gust
km/h
Spd
kts
Gust
kts
25/11:34pm 14.4 8.6 10.8 79 1.9 WSW 32 52 17 28 1012.7 1012.6 3.2
25/11:30pm 14.5 7.3 10.5 77 2.1 W 39 54 21 29 1012.8 1012.7 3.2
25/11:20pm 16.3 10.9 11.0 71 2.8 W 30 56 16 30 1013.0 1012.9 3.2
25/11:00pm 15.9 12.5 11.3 74 2.5 WSW 20 26 11 14 1012.8 1012.7 3.2
25/10:30pm 15.6 11.5 11.4 76 2.3 WSW 24 35 13 19 1013.3 1013.2 3.2
25/10:00pm 15.8 11.9 10.8 72 2.7 WNW 22 28 12 15 1012.2 1012.1 3.2
25/09:30pm 15.8 11.3 11.4 75 2.4 WNW 26 35 14 19 1012.7 1012.6 3.2
25/09:00pm 15.0 11.6 11.2 78 2.0 WNW 20 26 11 14 1012.8 1012.7 3.2
25/08:30pm 14.8 11.8 11.9 83 1.6 NW 19 26 10 14 1013.0 1012.9 3.2
25/08:00pm 14.6 11.3 11.7 83 1.6 NNW 20 28 11 15 1013.1 1013.0 3.2
25/07:30pm 14.3 8.2 10.5 78 2.0 NW 33 52 18 28 1013.5 1013.4 2.4
25/07:22pm 14.7 9.3 9.5 71 2.7 NW 28 48 15 26 1012.9 1012.8 0.2
25/07:00pm 16.1 12.9 11.3 73 2.6 NW 19 26 10 14 1013.0 1012.9 0.2
25/06:30pm 15.8 12.4 11.2 74 2.5 NW 20 26 11 14 1012.7 1012.6 0.2
25/06:00pm 15.8 12.0 11.0 73 2.6 NW 22 28 12 15 1012.3 1012.2 0.2
25/05:30pm 15.5 11.8 10.3 71 2.7 WNW 20 28 11 15 1012.1 1012.0 0.2
25/05:00pm 15.5 12.5 10.5 72 2.6 WNW 17 24 9 13 1012.0 1011.9 0.2
25/04:30pm 15.8 12.5 10.8 72 2.7 WNW 19 43 10 23 1011.9 1011.8 0.2
25/04:00pm 17.0 13.2 9.7 62 3.8 WNW 20 28 11 15 1011.6 1011.5 0.0
25/03:30pm 17.7 13.8 10.8 64 3.7 WNW 22 32 12 17 1011.6 1011.5 0.0
25/03:00pm 17.4 12.8 9.6 60 4.1 WNW 24 35 13 19 1011.4 1011.3 0.0
25/02:30pm 17.8 13.5 10.7 63 3.8 W 24 30 13 16 1011.5 1011.4 0.0
25/02:00pm 17.7 12.6 9.3 58 4.4 WNW 26 32 14 17 1011.4 1011.3 0.0
25/01:30pm 18.5 13.0 9.0 54 5.0 WNW 28 35 15 19 1011.3 1011.2 0.0
25/01:00pm 18.3 12.8 9.1 55 4.8 WNW 28 37 15 20 1011.3 1011.2 0.0
25/12:30pm 18.4 13.2 8.7 53 5.0 WNW 26 35 14 19 1011.3 1011.2 0.0
25/12:00pm 17.2 12.8 9.1 59 4.2 W 22 28 12 15 1011.7 1011.6 0.0
25/11:30am 17.8 14.3 10.2 61 4.0 W 19 26 10 14 1012.0 1011.9 0.0
25/11:00am 17.9 13.9 9.0 56 4.6 W 20 28 11 15 1012.0 1011.9 0.0
25/10:30am 17.5 13.5 9.2 58 4.3 W 20 26 11 14 1012.1 1012.0 0.0
25/10:00am 17.2 12.8 8.9 58 4.3 W 22 32 12 17 1012.1 1012.0 0.0
25/09:30am 16.9 11.6 8.3 57 4.4 WNW 26 33 14 18 1012.2 1012.1 0.0
25/09:00am 16.9 12.8 8.8 59 4.2 W 20 28 11 15 1012.0 1011.9 0.0
25/08:30am 15.9 12.3 10.0 68 3.1 WSW 19 26 10 14 1011.9 1011.8 0.0
25/08:00am 15.3 9.6 9.9 70 2.8 SW 30 37 16 20 1011.7 1011.6 0.0
25/07:50am 15.8 10.1 9.9 68 3.1 SW 30 43 16 23 1011.6 1011.5 0.0
25/07:30am 15.5 11.9 8.5 63 3.6 WSW 17 24 9 13 1011.5 1011.4 0.0
25/07:00am 15.1 10.7 7.6 61 3.7 WSW 20 26 11 14 1011.3 1011.2 0.0
25/06:30am 15.1 10.4 7.9 62 3.6 WSW 22 28 12 15 1011.0 1010.9 0.0
25/06:00am 15.1 10.3 7.4 60 3.8 WSW 22 32 12 17 1010.7 1010.6 0.0
25/05:30am 15.2 10.9 8.0 62 3.6 WSW 20 28 11 15 1010.6 1010.5 0.0
25/05:00am 15.6 10.9 7.6 59 4.0 WSW 22 32 12 17 1010.5 1010.4 0.0
25/04:30am 14.9 10.4 7.0 59 3.9 WSW 20 30 11 16 1010.4 1010.3 0.0

Other Formats:

Comma delimited format used in spreadsheet applications
http://www.bom.gov.au/fwo/IDW60801/IDW60801.94602.axf

JavaScript Object Notation format (JSON) in row-major order
http://www.bom.gov.au/fwo/IDW60801/IDW60801.94602.json